ADJ weather

CLOSED RAF Castletown
Caithness, Scotland, United Kingdom

Public forecast

Using degrees Celsius for public forecast. Weather courtesy of forecast.io.

METAR (pilot weather report)

Closest report is Wick Airport, 11.0 nm (20.4 km) SE. Retrieved 2019/05/25 05:20 UTC (46 seconds ago):

EGPC 250520Z AUTO 29009KT 9999 OVC029/// 08/07 Q1015

TAF (pilot weather forecast)

Closest forecast is RAF Lossiemouth, 52.8 nm (97.8 km) S. Retrieved 2019/05/25 03:06 UTC (2 hours ago):

TAF TAF EGQS 250139Z 2503/2521 29011KT 9999 SCT030 TEMPO 2503/2514 SCT018 PROB40 TEMPO 2512/2521 4000 -RADZ SCT008 BKN020 BECMG 2514/2517 BKN020